• Join FlightAware (Why Join?)
  • Login
  • US Flag 
11:56AM EST


 

Airport Tracker/Info


-or-


 

Live Flight TrackerFlight Track Log ✈ UAL1062 ✈ 14-Jun-2013 ✈ KIAH - KIAD

Flight Track Log - Related Links

Times and Time Zones

All times are in EDT time to prevent confusion due to time zone crossing. See the UAL1062 flight status page for this flight to view local times or setup timezone preferences in your user account.

Time Position Orientation Groundspeed Altitude Reporting Facility
EDT Latitude Longitude Course Direction KTS MPH feet Rate Location/Type
04:56PM 29.9554 -95.3372 143° Southeast 182 209 800  Level FlightAware ADS-B
04:56PM 29.9532 -95.3349 138° Southeast 183 211 900 2,100 Climbing FlightAware ADS-B
04:56PM 29.9471 -95.3267 131° Southeast 189 217 1,300 1,680 Climbing FlightAware ADS-B
04:56PM 29.9372 -95.3126 129° Southeast 205 236 1,700 1,320 Climbing FlightAware ADS-B
04:57PM 29.9279 -95.2995 129° Southeast 233 268 2,000 2,040 Climbing FlightAware ADS-B
04:57PM 29.9172 -95.2845 129° Southeast 235 270 2,700 2,880 Climbing FlightAware ADS-B
04:57PM 29.9073 -95.2704 129° Southeast 237 273 3,400 2,340 Climbing FlightAware ADS-B
04:57PM 29.9011 -95.2616 129° Southeast 247 284 3,600 1,380 Climbing FlightAware ADS-B
04:58PM 29.8884 -95.2434 129° Southeast 268 308 4,000 720 Climbing FlightAware ADS-B
04:58PM 29.8771 -95.2276 130° Southeast 272 313 4,000  Level FlightAware ADS-B
04:58PM 29.8653 -95.2114 130° Southeast 273 314 4,000  Level FlightAware ADS-B
04:58PM 29.8562 -95.1985 129° Southeast 273 314 4,000  Level FlightAware ADS-B
04:58PM 29.8477 -95.1861 128° Southeast 271 312 4,000  Level FlightAware ADS-B
04:58PM 29.8448 -95.1811 124° Southeast 272 313 4,000 720 Level FlightAware ADS-B
04:58PM 29.8426 -95.1757 115° Southeast 274 315 4,100 1,500 Climbing FlightAware ADS-B
04:59PM 29.8411 -95.1711 111° Southeast 274 315 4,200 1,680 Climbing FlightAware ADS-B
04:59PM 29.8399 -95.1663 106° East 274 315 4,300 2,280 Climbing FlightAware ADS-B
04:59PM 29.8350 -95.1449 105° East 276 318 4,900 2,760 Climbing FlightAware ADS-B
04:59PM 29.8301 -95.1231 105° East 277 319 5,700 3,060 Climbing FlightAware ADS-B
04:59PM 29.8235 -95.0950 105° East 279 321 6,700 3,000 Climbing FlightAware ADS-B
05:00PM 29.8227 -95.0901 101° East 278 320 6,900 3,720 Climbing FlightAware ADS-B
05:00PM 29.8219 -95.0832 98° East 277 319 7,200 3,960 Climbing FlightAware ADS-B
05:00PM 29.8214 -95.0758 94° East 277 319 7,500 3,000 Climbing FlightAware ADS-B
05:00PM 29.8216 -95.0604 87° East 278 320 8,000 3,000 Climbing FlightAware ADS-B
05:00PM 29.8231 -95.0379 86° East 279 321 8,800 2,280 Climbing FlightAware ADS-B
05:01PM 29.8298 -94.9258 86° East 315 362 11,400 1,980 Climbing FlightAware ADS-B
05:04PM 29.8455 -94.6422 86° East 380 437 16,400 1,920 Climbing FlightAware ADS-B
05:04PM 29.8488 -94.5802 86° East 387 445 17,400 2,040 Climbing FlightAware ADS-B
05:05PM 29.8521 -94.5169 87° East 392 451 18,500 1,920 Climbing FlightAware ADS-B
05:06PM 29.8587 -94.3880 87° East 404 465 20,400 1,680 Climbing FlightAware ADS-B
05:06PM 29.8617 -94.3253 87° East 413 475 21,100 1,380 Climbing FlightAware ADS-B
05:07PM 29.8601 -94.2576 92° East 423 487 21,800 1,560 Climbing FlightAware ADS-B
05:08PM 29.8544 -94.0545 92° East 436 502 24,300 1,500 Climbing FlightAware ADS-B
05:09PM 29.8685 -93.9056 83° East 456 525 25,600 1,200 Climbing FlightAware ADS-B
05:10PM 29.8786 -93.8109 83° East 464 534 26,400 1,260 Climbing FlightAware ADS-B
05:11PM 29.8859 -93.7269 84° East 464 534 27,200 1,440 Climbing FlightAware ADS-B
05:11PM 29.8834 -93.6495 92° East 467 537 28,000 1,260 Climbing FlightAware ADS-B
05:12PM 29.8776 -93.5512 94° East 471 542 28,700 960 Climbing FlightAware ADS-B
05:12PM 29.8740 -93.5013 95° East 476 548 29,000 840 Climbing FlightAware ADS-B
05:13PM 29.8645 -93.4241 98° East 484 557 29,400 780 Climbing FlightAware ADS-B
05:13PM 29.8548 -93.3463 98° East 491 565 29,800 720 Climbing FlightAware ADS-B
05:14PM 29.8445 -93.2621 98° East 497 572 30,200 1,020 Climbing FlightAware ADS-B
05:14PM 29.8360 -93.1814 97° East 497 572 30,900 1,320 Climbing FlightAware ADS-B
05:14PM 29.8338 -93.1574 96° East 494 568 31,100 1,560 Climbing FlightAware ADS-B
05:15PM 29.8358 -93.0735 88° East 494 568 32,000 1,620 Climbing FlightAware ADS-B
05:15PM 29.8400 -93.0427 81° East 484 557 32,300 1,320 Climbing FlightAware ADS-B
05:16PM 29.8803 -92.8907 73° East 473 544 33,700 900 Climbing FlightAware ADS-B
05:18PM 29.9552 -92.6357 71° East 471 542 35,000 540 Climbing FlightAware ADS-B
05:18PM 29.9758 -92.5650 71° East 468 539 35,000  Level FlightAware ADS-B
05:20PM 30.0291 -92.3814 71° East 470 541 35,000  Level FlightAware ADS-B
05:22PM 30.1415 -91.9885 72° East 474 545 35,000  Level FlightAware ADS-B
05:27PM 30.3101 -91.3906 72° East 477 549 35,000  Level FlightAware ADS-B
05:27PM 30.3370 -91.2950 72° East 477 549 35,000  Level FlightAware ADS-B
05:33PM 30.5770 -90.4180 72° East 479 551 35,000  Level FlightAware
05:34PM 30.5980 -90.3410 72° East 479 551 35,000  Level FlightAware
05:35PM 30.6330 -90.2110 73° East 479 551 35,000  Level FlightAware
05:35PM 30.6610 -90.1070 73° East 479 551 35,000  Level FlightAware
05:36PM 30.6880 -90.0120 72° East 477 549 35,000  Level FlightAware
05:37PM 30.7340 -89.9020 64° Northeast 475 547 35,000  Level FlightAware
05:37PM 30.7730 -89.8140 63° Northeast 474 545 35,000  Level FlightAware
05:38PM 30.8150 -89.7180 63° Northeast 473 544 35,000  Level FlightAware
05:39PM 30.8610 -89.6120 63° Northeast 472 543 35,000  Level FlightAware
05:40PM 30.9010 -89.5190 63° Northeast 470 541 35,000  Level FlightAware
05:40PM 30.9370 -89.4360 63° Northeast 471 542 35,000  Level FlightAware
05:41PM 30.9820 -89.3310 63° Northeast 470 541 35,000  Level FlightAware
05:42PM 31.0200 -89.2420 63° Northeast 470 541 35,000  Level FlightAware
05:42PM 31.0610 -89.1460 63° Northeast 469 540 35,000  Level FlightAware
05:43PM 31.1160 -89.0160 64° Northeast 467 537 35,000  Level FlightAware
05:44PM 31.1550 -88.9260 63° Northeast 466 536 35,000  Level FlightAware
05:45PM 31.1970 -88.8270 64° Northeast 466 536 35,000  Level FlightAware
05:45PM 31.2160 -88.7810 64° Northeast 466 536 35,000  Level FlightAware
05:46PM 31.2760 -88.6380 64° Northeast 466 536 35,000  Level FlightAware
05:47PM 31.3090 -88.5610 63° Northeast 469 540 35,000  Level FlightAware
05:48PM 31.3560 -88.4490 64° Northeast 470 541 35,000  Level FlightAware
05:48PM 31.3960 -88.3530 64° Northeast 470 541 35,000  Level FlightAware
05:49PM 31.4370 -88.2550 64° Northeast 470 541 35,000  Level FlightAware
05:50PM 31.4780 -88.1580 64° Northeast 471 542 35,000  Level FlightAware
05:50PM 31.5190 -88.0580 64° Northeast 470 541 35,000  Level FlightAware
05:52PM 31.5770 -87.9170 64° Northeast 470 541 35,000  Level FlightAware
05:52PM 31.6060 -87.8490 63° Northeast 470 541 35,000  Level FlightAware
05:53PM 31.6540 -87.7310 64° Northeast 468 539 35,000  Level FlightAware
05:54PM 31.6940 -87.6350 64° Northeast 468 539 35,000  Level FlightAware
05:54PM 31.7230 -87.5650 64° Northeast 468 539 35,000  Level FlightAware
05:55PM 31.7570 -87.4840 64° Northeast 468 539 35,000  Level FlightAware
05:56PM 31.7950 -87.3900 65° Northeast 468 539 35,000  Level FlightAware
05:56PM 31.8230 -87.3220 64° Northeast 468 539 35,000  Level FlightAware
05:57PM 31.8610 -87.2310 64° Northeast 468 539 35,000  Level FlightAware
05:58PM 31.8900 -87.1600 64° Northeast 468 539 35,000  Level FlightAware
05:59PM 31.9290 -87.0670 64° Northeast 468 539 35,000  Level FlightAware
05:59PM 31.9580 -86.9970 64° Northeast 468 539 35,000  Level FlightAware
06:00PM 32.0080 -86.8760 64° Northeast 468 539 35,000  Level FlightAware
06:01PM 32.0390 -86.8020 64° Northeast 468 539 35,000  Level FlightAware
06:01PM 32.0690 -86.7270 65° Northeast 468 539 35,000  Level FlightAware
06:02PM 32.1070 -86.6360 64° Northeast 468 539 35,000  Level FlightAware
06:07PM 32.5030 -85.9040 57° Northeast 444 511 35,000  Level FlightAware
06:07PM 32.5520 -85.8300 52° Northeast 441 507 35,000 -840 Level FlightAware
06:08PM 32.5980 -85.7630 51° Northeast 440 506 34,000 -1,500 Descending FlightAware
06:09PM 32.6580 -85.6730 52° Northeast 446 513 33,000 -600 Descending FlightAware
06:10PM 32.7270 -85.5710 51° Northeast 452 520 33,000  Level FlightAware
06:10PM 32.7870 -85.4780 52° Northeast 462 532 33,000  Level FlightAware
06:11PM 32.8590 -85.3710 51° Northeast 462 532 33,000  Level FlightAware
06:12PM 32.9080 -85.2960 52° Northeast 462 532 33,000  Level FlightAware
06:12PM 32.9700 -85.2020 52° Northeast 462 532 33,000  Level FlightAware
06:13PM 33.0140 -85.1340 52° Northeast 461 531 33,000  Level FlightAware
06:14PM 33.0790 -85.0360 52° Northeast 462 532 33,000  Level FlightAware
06:14PM 33.1269 -84.9630 52° Northeast 461 531 33,000  Level FlightAware ADS-B
06:15PM 33.1950 -84.8474 55° Northeast 458 527 33,000  Level FlightAware ADS-B
06:16PM 33.2388 -84.7842 50° Northeast 455 524 33,000  Level FlightAware ADS-B
06:17PM 33.2991 -84.6967 50° Northeast 454 522 33,000  Level FlightAware ADS-B
06:18PM 33.3645 -84.6013 51° Northeast 453 521 33,000  Level FlightAware ADS-B
06:18PM 33.4290 -84.5210 46° Northeast 443 510 33,000  Level FlightAware
06:18PM 33.4461 -84.5031 41° Northeast 444 511 33,000  Level FlightAware ADS-B
06:19PM 33.4962 -84.4524 40° Northeast 445 512 33,000  Level FlightAware ADS-B
06:19PM 33.5236 -84.4226 42° Northeast 450 518 33,000  Level FlightAware ADS-B
06:20PM 33.5555 -84.3762 50° Northeast 457 526 33,000  Level FlightAware ADS-B
06:20PM 33.6013 -84.3028 53° Northeast 457 526 33,000  Level FlightAware ADS-B
06:21PM 33.6397 -84.2414 53° Northeast 458 527 33,000  Level FlightAware ADS-B
06:21PM 33.6798 -84.1771 53° Northeast 458 527 33,000  Level FlightAware ADS-B
06:22PM 33.7252 -84.1042 53° Northeast 458 527 33,000  Level FlightAware ADS-B
06:22PM 33.7633 -84.0426 53° Northeast 455 524 33,000  Level FlightAware ADS-B
06:23PM 33.8021 -83.9799 53° Northeast 451 519 33,000  Level FlightAware ADS-B
06:23PM 33.8415 -83.9161 53° Northeast 449 517 33,000  Level FlightAware ADS-B
06:25PM 33.9271 -83.7767 53° Northeast 448 516 33,000  Level FlightAware ADS-B
06:25PM 33.9760 -83.6960 54° Northeast 446 513 33,000  Level FlightAware
06:26PM 33.9959 -83.6645 53° Northeast 446 513 33,000  Level FlightAware ADS-B
06:26PM 34.0448 -83.5843 54° Northeast 446 513 33,000  Level FlightAware ADS-B
06:27PM 34.0935 -83.5044 54° Northeast 446 513 33,000  Level FlightAware ADS-B
06:27PM 34.1318 -83.4416 54° Northeast 446 513 33,000  Level FlightAware ADS-B
06:28PM 34.1693 -83.3799 54° Northeast 446 513 33,000  Level FlightAware ADS-B
06:28PM 34.2103 -83.3125 54° Northeast 446 513 33,000  Level FlightAware ADS-B
06:29PM 34.2509 -83.2452 54° Northeast 447 514 33,000  Level FlightAware ADS-B
06:30PM 34.2879 -83.1841 54° Northeast 447 514 33,000  Level FlightAware ADS-B
06:30PM 34.3247 -83.1232 54° Northeast 447 514 33,000  Level FlightAware ADS-B
06:31PM 34.3622 -83.0609 54° Northeast 448 516 33,000  Level FlightAware ADS-B
06:31PM 34.4103 -82.9807 54° Northeast 448 516 33,000  Level FlightAware ADS-B
06:32PM 34.4476 -82.9186 54° Northeast 449 517 33,000  Level FlightAware ADS-B
06:32PM 34.4847 -82.8565 54° Northeast 447 514 33,000  Level FlightAware ADS-B
06:33PM 34.5380 -82.7673 54° Northeast 447 514 33,000  Level FlightAware ADS-B
06:34PM 34.5787 -82.6991 54° Northeast 446 513 33,000  Level FlightAware ADS-B
06:34PM 34.6161 -82.6362 54° Northeast 447 514 33,000  Level FlightAware ADS-B
06:35PM 34.6612 -82.5603 54° Northeast 446 513 33,000  Level FlightAware ADS-B
06:35PM 34.7000 -82.4950 54° Northeast 444 511 33,000  Level FlightAware ADS-B
06:36PM 34.7370 -82.4330 54° Northeast 444 511 33,000  Level FlightAware
06:36PM 34.7493 -82.4115 55° Northeast 443 510 33,000  Level FlightAware ADS-B
06:36PM 34.7860 -82.3493 54° Northeast 442 509 33,000  Level FlightAware ADS-B
06:37PM 34.8308 -82.2733 54° Northeast 441 507 33,000  Level FlightAware ADS-B
06:38PM 34.8728 -82.2018 54° Northeast 441 507 33,000  Level FlightAware ADS-B
06:38PM 34.9092 -82.1398 54° Northeast 440 506 33,000  Level FlightAware ADS-B
06:39PM 34.9451 -82.0785 54° Northeast 440 506 33,000  Level FlightAware ADS-B
06:39PM 34.9810 -82.0171 54° Northeast 440 506 33,000  Level FlightAware ADS-B
06:40PM 35.0165 -81.9564 54° Northeast 440 506 33,000  Level FlightAware ADS-B
06:40PM 35.0517 -81.8932 56° Northeast 444 511 33,000  Level FlightAware ADS-B
06:41PM 35.0861 -81.8286 57° Northeast 443 510 33,000  Level FlightAware ADS-B
06:41PM 35.1200 -81.7647 57° Northeast 443 510 33,000  Level FlightAware ADS-B
06:42PM 35.1533 -81.7019 57° Northeast 442 509 33,000  Level FlightAware ADS-B
06:42PM 35.1869 -81.6386 57° Northeast 443 510 33,000  Level FlightAware ADS-B
06:43PM 35.2202 -81.5755 57° Northeast 444 511 33,000  Level FlightAware ADS-B
06:43PM 35.2541 -81.5113 57° Northeast 444 511 33,000  Level FlightAware ADS-B
06:44PM 35.2895 -81.4443 57° Northeast 440 506 33,000  Level FlightAware ADS-B
06:44PM 35.3244 -81.3780 57° Northeast 440 506 33,000  Level FlightAware ADS-B
06:45PM 35.3593 -81.3112 57° Northeast 440 506 33,000  Level FlightAware ADS-B
06:45PM 35.3966 -81.2395 57° Northeast 441 507 33,000  Level FlightAware ADS-B
06:46PM 35.4324 -81.1711 57° Northeast 442 509 33,000  Level FlightAware ADS-B
06:46PM 35.4657 -81.1075 57° Northeast 442 509 33,000  Level FlightAware ADS-B
06:48PM 35.5430 -80.9590 57° Northeast 441 507 33,000  Level FlightAware
06:48PM 35.5890 -80.8700 58° Northeast 441 507 33,000  Level FlightAware
06:49PM 35.6360 -80.7800 57° Northeast 442 509 33,000  Level FlightAware
06:50PM 35.6850 -80.6840 58° Northeast 443 510 33,000  Level FlightAware
06:50PM 35.7280 -80.6000 58° Northeast 438 504 33,000  Level FlightAware
06:51PM 35.7820 -80.4970 57° Northeast 436 502 33,000  Level FlightAware
06:52PM 35.8450 -80.3720 58° Northeast 438 504 33,000  Level FlightAware
06:53PM 35.8900 -80.2850 57° Northeast 437 503 33,000  Level FlightAware
06:54PM 35.9390 -80.1880 58° Northeast 439 505 33,000  Level FlightAware
06:54PM 35.9770 -80.1110 59° Northeast 439 505 33,000  Level FlightAware
06:55PM 35.9990 -80.0680 58° Northeast 439 505 33,000  Level FlightAware
06:56PM 36.0560 -79.9570 58° Northeast 439 505 33,000  Level FlightAware
06:57PM 36.0990 -79.8700 59° Northeast 439 505 33,000  Level FlightAware
06:57PM 36.1330 -79.8030 58° Northeast 439 505 33,000  Level FlightAware
06:58PM 36.1760 -79.7180 58° Northeast 439 505 33,000  Level FlightAware
06:59PM 36.2100 -79.6500 58° Northeast 439 505 33,000  Level FlightAware
06:59PM 36.2520 -79.5670 58° Northeast 439 505 33,000  Level FlightAware
07:01PM 36.3220 -79.4290 58° Northeast 439 505 33,000  Level FlightAware
07:01PM 36.3550 -79.3630 58° Northeast 439 505 33,000  Level FlightAware
07:02PM 36.3990 -79.2760 58° Northeast 439 505 33,000 -600 Level FlightAware
07:03PM 36.5410 -79.0960 45° Northeast 431 496 32,200 -2,100 Descending FlightAware
07:03PM 36.5850 -79.0160 56° Northeast 435 501 30,200 -2,220 Descending FlightAware
07:04PM 36.6320 -78.9310 55° Northeast 434 499 29,100 -900 Descending FlightAware
07:05PM 36.6640 -78.8710 56° Northeast 434 499 29,100 -2,700 Level FlightAware
07:05PM 36.7170 -78.7780 55° Northeast 433 498 25,600 -2,280 Descending FlightAware
07:06PM 36.7900 -78.6470 55° Northeast 398 458 25,000 -420 Descending FlightAware
07:07PM 36.8220 -78.5870 56° Northeast 396 456 25,000  Level FlightAware
07:08PM 36.8650 -78.5110 55° Northeast 396 456 25,000  Level FlightAware
07:09PM 36.9200 -78.4140 55° Northeast 396 456 25,000  Level FlightAware
07:09PM 36.9510 -78.3580 55° Northeast 396 456 25,000  Level FlightAware
07:10PM 37.0170 -78.2470 53° Northeast 394 453 25,000  Level FlightAware
07:11PM 37.0820 -78.1990 30° Northeast 393 452 25,000  Level FlightAware
07:11PM 37.1530 -78.1510 28° Northeast 396 456 25,000  Level FlightAware
07:12PM 37.1930 -78.1240 28° Northeast 396 456 25,000 -1,980 Level FlightAware
07:13PM 37.2730 -78.0700 28° Northeast 394 453 22,500 -2,160 Descending FlightAware
07:13PM 37.3430 -78.0230 28° Northeast 379 436 22,000 -300 Descending FlightAware
07:14PM 37.4030 -77.9810 29° Northeast 22,000  Level FlightAware
07:15PM 37.4690 -77.9360 28° Northeast 407 468 22,000  Level FlightAware
07:15PM 37.5400 -77.8880 28° Northeast 371 427 22,000 -240 Level FlightAware
07:16PM 37.6050 -77.8440 28° Northeast 359 413 21,700 -780 Descending FlightAware
07:17PM 37.6620 -77.8050 28° Northeast 354 407 21,000 -1,140 Descending FlightAware
07:17PM 37.7310 -77.7570 29° Northeast 355 409 20,100 -1,560 Descending FlightAware
07:18PM 37.7890 -77.7170 29° Northeast 349 402 18,700 -1,980 Descending FlightAware
07:19PM 37.8450 -77.6780 29° Northeast 342 394 17,400 -2,040 Descending FlightAware
07:19PM 37.8990 -77.6410 28° Northeast 336 387 16,100 -2,040 Descending FlightAware
07:20PM 37.9830 -77.5830 29° Northeast 326 375 14,000 -2,040 Descending FlightAware
07:21PM 38.0280 -77.5520 28° Northeast 322 371 12,900 -1,920 Descending FlightAware
07:22PM 38.0890 -77.5090 29° Northeast 315 362 11,400 -1,740 Descending FlightAware
07:23PM 38.1430 -77.4720 28° Northeast 305 351 10,300 -1,200 Descending FlightAware
07:23PM 38.1790 -77.4470 29° Northeast 281 323 10,000 -300 Descending FlightAware
07:24PM 38.2180 -77.4280 21° North 261 300 10,000  Level FlightAware
07:24PM 38.2360 -77.4310 353° North 261 300 10,000 -1,020 Level FlightAware
07:24PM 38.2760 -77.4370 353° North 262 302 9,200 -1,680 Descending FlightAware
07:25PM 38.2910 -77.4390 354° North 260 299 8,900 -1,380 Descending FlightAware
07:25PM 38.3270 -77.4440 354° North 255 293 8,200 -1,440 Descending FlightAware
07:26PM 38.3610 -77.4490 353° North 254 292 7,500 -1,560 Descending FlightAware
07:26PM 38.3880 -77.4530 353° North 257 296 6,900 -1,500 Descending FlightAware
07:27PM 38.4420 -77.4600 354° North 256 295 5,800 -1,500 Descending FlightAware
07:27PM 38.4660 -77.4640 353° North 254 292 5,300 -1,200 Descending FlightAware
07:28PM 38.5010 -77.4680 355° North 255 293 4,800 -900 Descending FlightAware
07:28PM 38.5390 -77.4680 360° North 255 293 4,400 -720 Descending FlightAware
07:29PM 38.5720 -77.4670 North 254 292 4,100 -540 Descending FlightAware
07:29PM 38.6060 -77.4660 North 250 288 3,900 -240 Descending FlightAware
07:30PM 38.6350 -77.4640 North 248 285 3,900 -660 Level FlightAware
07:30PM 38.6770 -77.4640 360° North 218 251 3,200 -780 Descending FlightAware
07:31PM 38.7090 -77.4630 North 215 247 2,900 -300 Descending FlightAware
07:31PM 38.7430 -77.4630 360° North 199 229 2,900  Level FlightAware
07:32PM 38.7710 -77.4620 North 196 226 2,900  Level FlightAware
07:32PM 38.7930 -77.4620 360° North 178 205 2,900 -360 Level FlightAware
07:33PM 38.8170 -77.4620 360° North 164 189 2,600 -660 Descending FlightAware
07:33PM 38.8340 -77.4610 North 163 188 2,300 -840 Descending FlightAware
07:34PM 38.8620 -77.4610 360° North 159 183 1,800 -840 Descending FlightAware
07:34PM 38.8800 -77.4610 360° North 144 166 1,500 -780 Descending FlightAware
07:34PM 38.8860 -77.4600 North 142 163 1,300 -840 Descending FlightAware